sensor_id;sensor_type;location;lat;lon;timestamp;pressure;altitude;pressure_sealevel;temperature;humidity
46778;BME280;32536;47.128;8.746;2023-04-23T00:02:00;91204.06;;;15.53;47.59
46778;BME280;32536;47.128;8.746;2023-04-23T00:04:29;91204.50;;;15.51;48.00
46778;BME280;32536;47.128;8.746;2023-04-23T00:07:02;91205.84;;;15.47;47.91
46778;BME280;32536;47.128;8.746;2023-04-23T00:09:30;91208.22;;;15.45;48.16
46778;BME280;32536;47.128;8.746;2023-04-23T00:11:58;91200.88;;;15.45;48.00
46778;BME280;32536;47.128;8.746;2023-04-23T00:14:26;91205.19;;;15.43;47.93
46778;BME280;32536;47.128;8.746;2023-04-23T00:16:54;91204.16;;;15.40;47.97
46778;BME280;32536;47.128;8.746;2023-04-23T00:19:20;91200.41;;;15.37;48.27
46778;BME280;32536;47.128;8.746;2023-04-23T00:21:47;91197.69;;;15.37;48.27
46778;BME280;32536;47.128;8.746;2023-04-23T00:24:14;91199.03;;;15.33;48.51
46778;BME280;32536;47.128;8.746;2023-04-23T00:26:41;91202.19;;;15.31;48.25
46778;BME280;32536;47.128;8.746;2023-04-23T00:29:07;91197.53;;;15.32;48.19
46778;BME280;32536;47.128;8.746;2023-04-23T00:31:34;91196.31;;;15.33;48.06
46778;BME280;32536;47.128;8.746;2023-04-23T00:34:01;91193.34;;;15.31;47.98
46778;BME280;32536;47.128;8.746;2023-04-23T00:36:28;91194.22;;;15.28;47.92
46778;BME280;32536;47.128;8.746;2023-04-23T00:38:54;91196.31;;;15.24;47.89
46778;BME280;32536;47.128;8.746;2023-04-23T00:41:22;91201.25;;;15.25;48.33
46778;BME280;32536;47.128;8.746;2023-04-23T00:43:49;91202.44;;;15.24;48.31
46778;BME280;32536;47.128;8.746;2023-04-23T00:46:17;91192.84;;;15.23;48.30
46778;BME280;32536;47.128;8.746;2023-04-23T00:48:45;91209.16;;;15.19;48.29
46778;BME280;32536;47.128;8.746;2023-04-23T00:51:15;91198.97;;;15.14;48.47
46778;BME280;32536;47.128;8.746;2023-04-23T00:53:42;91203.44;;;15.08;48.36
46778;BME280;32536;47.128;8.746;2023-04-23T00:56:09;91191.28;;;15.03;48.22
46778;BME280;32536;47.128;8.746;2023-04-23T00:58:36;91195.59;;;15.01;48.40
46778;BME280;32536;47.128;8.746;2023-04-23T01:01:03;91193.03;;;14.97;48.58
46778;BME280;32536;47.128;8.746;2023-04-23T01:03:31;91196.63;;;14.94;48.66
46778;BME280;32536;47.128;8.746;2023-04-23T01:06:02;91197.06;;;14.93;48.64
46778;BME280;32536;47.128;8.746;2023-04-23T01:08:30;91196.31;;;14.92;49.18
46778;BME280;32536;47.128;8.746;2023-04-23T01:10:58;91186.28;;;14.93;48.95
46778;BME280;32536;47.128;8.746;2023-04-23T01:13:25;91193.03;;;14.97;48.83
46778;BME280;32536;47.128;8.746;2023-04-23T01:15:55;91194.41;;;15.02;49.20
46778;BME280;32536;47.128;8.746;2023-04-23T01:18:22;91197.31;;;15.08;49.08
46778;BME280;32536;47.128;8.746;2023-04-23T01:20:49;91192.50;;;15.12;49.33
46778;BME280;32536;47.128;8.746;2023-04-23T01:23:16;91194.59;;;15.08;49.04
46778;BME280;32536;47.128;8.746;2023-04-23T01:25:43;91196.66;;;15.03;48.88
46778;BME280;32536;47.128;8.746;2023-04-23T01:28:10;91199.81;;;15.02;48.97
46778;BME280;32536;47.128;8.746;2023-04-23T01:30:37;91203.25;;;15.02;48.81
46778;BME280;32536;47.128;8.746;2023-04-23T01:33:07;91205.94;;;15.02;48.98
46778;BME280;32536;47.128;8.746;2023-04-23T01:35:35;91206.06;;;14.99;48.99
46778;BME280;32536;47.128;8.746;2023-04-23T01:38:02;91210.72;;;14.98;49.09
46778;BME280;32536;47.128;8.746;2023-04-23T01:40:30;91195.00;;;14.97;48.83
46778;BME280;32536;47.128;8.746;2023-04-23T01:42:57;91206.66;;;14.94;48.77
46778;BME280;32536;47.128;8.746;2023-04-23T01:45:24;91201.25;;;14.94;48.54
46778;BME280;32536;47.128;8.746;2023-04-23T01:47:51;91201.72;;;14.92;48.60
46778;BME280;32536;47.128;8.746;2023-04-23T01:50:18;91205.88;;;14.84;49.01
46778;BME280;32536;47.128;8.746;2023-04-23T01:52:47;91207.38;;;14.63;49.36
46778;BME280;32536;47.128;8.746;2023-04-23T01:55:14;91210.44;;;14.52;49.41
46778;BME280;32536;47.128;8.746;2023-04-23T01:57:45;91211.25;;;14.39;49.52
46778;BME280;32536;47.128;8.746;2023-04-23T02:00:13;91209.38;;;14.27;50.46
46778;BME280;32536;47.128;8.746;2023-04-23T02:02:42;91208.34;;;14.12;50.27
46778;BME280;32536;47.128;8.746;2023-04-23T02:05:17;91208.72;;;14.01;53.43
46778;BME280;32536;47.128;8.746;2023-04-23T02:07:46;91206.47;;;13.99;50.13
46778;BME280;32536;47.128;8.746;2023-04-23T02:10:15;91211.84;;;13.99;49.83
46778;BME280;32536;47.128;8.746;2023-04-23T02:12:42;91210.97;;;14.02;49.70
46778;BME280;32536;47.128;8.746;2023-04-23T02:15:10;91208.84;;;13.97;50.69
46778;BME280;32536;47.128;8.746;2023-04-23T02:17:37;91207.44;;;13.92;50.07
46778;BME280;32536;47.128;8.746;2023-04-23T02:20:06;91209.06;;;13.90;50.61
46778;BME280;32536;47.128;8.746;2023-04-23T02:22:35;91203.19;;;13.82;50.59
46778;BME280;32536;47.128;8.746;2023-04-23T02:25:18;91212.88;;;13.80;52.52
46778;BME280;32536;47.128;8.746;2023-04-23T02:27:47;91210.47;;;13.82;50.01
46778;BME280;32536;47.128;8.746;2023-04-23T02:30:14;91205.63;;;13.89;49.37
46778;BME280;32536;47.128;8.746;2023-04-23T02:32:40;91206.13;;;13.97;49.55
46778;BME280;32536;47.128;8.746;2023-04-23T02:35:08;91205.56;;;14.02;49.54
46778;BME280;32536;47.128;8.746;2023-04-23T02:37:36;91207.72;;;14.07;49.65
46778;BME280;32536;47.128;8.746;2023-04-23T02:40:03;91200.59;;;14.14;49.66
46778;BME280;32536;47.128;8.746;2023-04-23T02:42:31;91207.78;;;14.17;49.50
46778;BME280;32536;47.128;8.746;2023-04-23T02:44:58;91197.34;;;14.19;49.68
46778;BME280;32536;47.128;8.746;2023-04-23T02:47:24;91205.41;;;14.19;49.95
46778;BME280;32536;47.128;8.746;2023-04-23T02:49:51;91205.88;;;14.17;50.47
46778;BME280;32536;47.128;8.746;2023-04-23T02:52:18;91202.97;;;14.12;50.19
46778;BME280;32536;47.128;8.746;2023-04-23T02:54:45;91200.06;;;14.06;50.23
46778;BME280;32536;47.128;8.746;2023-04-23T02:57:12;91203.22;;;14.04;50.18
46778;BME280;32536;47.128;8.746;2023-04-23T02:59:41;91209.38;;;14.05;50.07
46778;BME280;32536;47.128;8.746;2023-04-23T03:02:08;91209.91;;;14.00;50.13
46778;BME280;32536;47.128;8.746;2023-04-23T03:04:35;91202.25;;;13.98;50.20
46778;BME280;32536;47.128;8.746;2023-04-23T03:07:02;91201.81;;;14.00;50.07
46778;BME280;32536;47.128;8.746;2023-04-23T03:09:29;91201.69;;;14.03;50.04
46778;BME280;32536;47.128;8.746;2023-04-23T03:11:55;91200.84;;;14.06;50.08
46778;BME280;32536;47.128;8.746;2023-04-23T03:14:22;91196.06;;;14.11;49.78
46778;BME280;32536;47.128;8.746;2023-04-23T03:16:49;91193.25;;;14.14;49.61
46778;BME280;32536;47.128;8.746;2023-04-23T03:19:15;91187.00;;;14.17;49.70
46778;BME280;32536;47.128;8.746;2023-04-23T03:21:42;91189.25;;;14.19;49.81
46778;BME280;32536;47.128;8.746;2023-04-23T03:24:12;91188.06;;;14.20;50.48
46778;BME280;32536;47.128;8.746;2023-04-23T03:26:41;91192.16;;;14.24;50.06
46778;BME280;32536;47.128;8.746;2023-04-23T03:29:08;91198.47;;;14.31;50.19
46778;BME280;32536;47.128;8.746;2023-04-23T03:31:35;91190.56;;;14.36;50.16
46778;BME280;32536;47.128;8.746;2023-04-23T03:34:02;91191.50;;;14.43;50.11
46778;BME280;32536;47.128;8.746;2023-04-23T03:36:28;91189.00;;;14.48;49.81
46778;BME280;32536;47.128;8.746;2023-04-23T03:38:55;91190.84;;;14.51;49.99
46778;BME280;32536;47.128;8.746;2023-04-23T03:41:22;91188.00;;;14.55;50.13
46778;BME280;32536;47.128;8.746;2023-04-23T03:43:49;91181.72;;;14.58;49.96
46778;BME280;32536;47.128;8.746;2023-04-23T03:46:16;91176.94;;;14.62;49.88
46778;BME280;32536;47.128;8.746;2023-04-23T03:48:42;91173.06;;;14.63;49.75
46778;BME280;32536;47.128;8.746;2023-04-23T03:51:09;91184.28;;;14.62;49.86
46778;BME280;32536;47.128;8.746;2023-04-23T03:53:36;91193.56;;;14.61;50.25
46778;BME280;32536;47.128;8.746;2023-04-23T03:56:03;91190.88;;;14.61;50.04
46778;BME280;32536;47.128;8.746;2023-04-23T03:58:29;91189.81;;;14.58;50.06
46778;BME280;32536;47.128;8.746;2023-04-23T04:00:56;91188.31;;;14.57;50.09
46778;BME280;32536;47.128;8.746;2023-04-23T04:03:23;91187.56;;;14.56;50.21
46778;BME280;32536;47.128;8.746;2023-04-23T04:05:50;91189.81;;;14.58;50.30
46778;BME280;32536;47.128;8.746;2023-04-23T04:08:17;91183.69;;;14.57;50.11
46778;BME280;32536;47.128;8.746;2023-04-23T04:10:43;91190.38;;;14.53;50.04
46778;BME280;32536;47.128;8.746;2023-04-23T04:13:10;91174.53;;;14.55;50.08
46778;BME280;32536;47.128;8.746;2023-04-23T04:15:37;91176.03;;;14.56;49.68
46778;BME280;32536;47.128;8.746;2023-04-23T04:18:04;91178.84;;;14.52;49.93
46778;BME280;32536;47.128;8.746;2023-04-23T04:20:31;91178.09;;;14.52;50.03
46778;BME280;32536;47.128;8.746;2023-04-23T04:22:58;91176.16;;;14.52;49.74
46778;BME280;32536;47.128;8.746;2023-04-23T04:25:24;91168.81;;;14.53;49.71
46778;BME280;32536;47.128;8.746;2023-04-23T04:27:53;91161.34;;;14.57;49.71
46778;BME280;32536;47.128;8.746;2023-04-23T04:30:20;91165.09;;;14.60;49.65
46778;BME280;32536;47.128;8.746;2023-04-23T04:32:46;91163.47;;;14.62;49.77
46778;BME280;32536;47.128;8.746;2023-04-23T04:35:15;91159.94;;;14.65;49.64
46778;BME280;32536;47.128;8.746;2023-04-23T04:37:42;91171.03;;;14.67;49.49
46778;BME280;32536;47.128;8.746;2023-04-23T04:40:09;91170.28;;;14.67;49.60
46778;BME280;32536;47.128;8.746;2023-04-23T04:42:37;91167.16;;;14.68;49.46
46778;BME280;32536;47.128;8.746;2023-04-23T04:45:04;91167.56;;;14.67;49.63
46778;BME280;32536;47.128;8.746;2023-04-23T04:47:33;91164.69;;;14.61;49.48
46778;BME280;32536;47.128;8.746;2023-04-23T04:50:00;91166.75;;;14.57;49.75
46778;BME280;32536;47.128;8.746;2023-04-23T04:52:26;91172.13;;;14.57;49.87
46778;BME280;32536;47.128;8.746;2023-04-23T04:54:53;91168.25;;;14.58;49.57
46778;BME280;32536;47.128;8.746;2023-04-23T04:57:20;91169.31;;;14.61;49.59
46778;BME280;32536;47.128;8.746;2023-04-23T04:59:48;91171.13;;;14.64;49.63
46778;BME280;32536;47.128;8.746;2023-04-23T05:02:15;91175.66;;;14.67;49.50
46778;BME280;32536;47.128;8.746;2023-04-23T05:04:41;91174.78;;;14.70;49.49
46778;BME280;32536;47.128;8.746;2023-04-23T05:07:08;91170.13;;;14.70;49.50
46778;BME280;32536;47.128;8.746;2023-04-23T05:09:35;91163.25;;;14.69;49.50
46778;BME280;32536;47.128;8.746;2023-04-23T05:12:02;91167.44;;;14.70;49.73
46778;BME280;32536;47.128;8.746;2023-04-23T05:14:32;91170.47;;;14.72;49.80
46778;BME280;32536;47.128;8.746;2023-04-23T05:16:59;91166.56;;;14.73;49.51
46778;BME280;32536;47.128;8.746;2023-04-23T05:19:25;91162.97;;;14.77;49.75
46778;BME280;32536;47.128;8.746;2023-04-23T05:21:52;91168.69;;;14.79;49.83
46778;BME280;32536;47.128;8.746;2023-04-23T05:24:19;91165.53;;;14.80;49.94
46778;BME280;32536;47.128;8.746;2023-04-23T05:26:46;91164.81;;;14.80;49.93
46778;BME280;32536;47.128;8.746;2023-04-23T05:29:12;91172.91;;;14.80;50.02
46778;BME280;32536;47.128;8.746;2023-04-23T05:31:44;91172.00;;;14.83;49.79
46778;BME280;32536;47.128;8.746;2023-04-23T05:34:11;91172.44;;;14.81;49.94
46778;BME280;32536;47.128;8.746;2023-04-23T05:36:37;91179.94;;;14.77;49.59
46778;BME280;32536;47.128;8.746;2023-04-23T05:39:04;91174.03;;;14.69;49.68
46778;BME280;32536;47.128;8.746;2023-04-23T05:41:31;91176.84;;;14.66;49.65
46778;BME280;32536;47.128;8.746;2023-04-23T05:43:58;91167.69;;;14.63;49.71
46778;BME280;32536;47.128;8.746;2023-04-23T05:46:25;91168.69;;;14.56;49.75
46778;BME280;32536;47.128;8.746;2023-04-23T05:48:52;91176.91;;;14.53;49.60
46778;BME280;32536;47.128;8.746;2023-04-23T05:51:18;91176.16;;;14.52;49.82
46778;BME280;32536;47.128;8.746;2023-04-23T05:53:45;91173.44;;;14.52;49.44
46778;BME280;32536;47.128;8.746;2023-04-23T05:56:12;91173.91;;;14.51;49.69
46778;BME280;32536;47.128;8.746;2023-04-23T05:58:39;91181.53;;;14.52;49.78
46778;BME280;32536;47.128;8.746;2023-04-23T06:01:05;91178.09;;;14.52;49.71
46778;BME280;32536;47.128;8.746;2023-04-23T06:03:33;91179.16;;;14.54;49.82
46778;BME280;32536;47.128;8.746;2023-04-23T06:06:01;91181.41;;;14.56;49.88
46778;BME280;32536;47.128;8.746;2023-04-23T06:08:28;91179.03;;;14.58;49.94
46778;BME280;32536;47.128;8.746;2023-04-23T06:10:55;91180.88;;;14.61;50.00
46778;BME280;32536;47.128;8.746;2023-04-23T06:13:21;91188.19;;;14.61;49.94
46778;BME280;32536;47.128;8.746;2023-04-23T06:15:48;91195.94;;;14.58;49.87
46778;BME280;32536;47.128;8.746;2023-04-23T06:18:15;91177.09;;;14.58;49.90
46778;BME280;32536;47.128;8.746;2023-04-23T06:20:42;91181.28;;;14.60;49.96
46778;BME280;32536;47.128;8.746;2023-04-23T06:23:11;91186.25;;;14.61;50.26
46778;BME280;32536;47.128;8.746;2023-04-23T06:25:38;91182.78;;;14.61;49.92
46778;BME280;32536;47.128;8.746;2023-04-23T06:28:05;91174.53;;;14.55;50.18
46778;BME280;32536;47.128;8.746;2023-04-23T06:30:31;91166.38;;;14.46;50.21
46778;BME280;32536;47.128;8.746;2023-04-23T06:32:58;91170.19;;;14.35;50.16
46778;BME280;32536;47.128;8.746;2023-04-23T06:35:26;91175.88;;;14.28;50.46
46778;BME280;32536;47.128;8.746;2023-04-23T06:37:54;91175.66;;;14.22;50.43
46778;BME280;32536;47.128;8.746;2023-04-23T06:40:21;91169.22;;;14.20;50.52
46778;BME280;32536;47.128;8.746;2023-04-23T06:42:47;91178.94;;;14.17;50.65
46778;BME280;32536;47.128;8.746;2023-04-23T06:45:14;91167.97;;;14.12;50.67
46778;BME280;32536;47.128;8.746;2023-04-23T06:47:41;91173.13;;;14.06;50.57
46778;BME280;32536;47.128;8.746;2023-04-23T06:50:08;91170.28;;;14.00;50.84
46778;BME280;32536;47.128;8.746;2023-04-23T06:52:35;91153.91;;;13.95;50.85
46778;BME280;32536;47.128;8.746;2023-04-23T06:55:02;91142.63;;;13.87;50.86
46778;BME280;32536;47.128;8.746;2023-04-23T06:57:28;91144.38;;;13.81;51.06
46778;BME280;32536;47.128;8.746;2023-04-23T06:59:55;91141.16;;;13.73;51.36
46778;BME280;32536;47.128;8.746;2023-04-23T07:02:22;91145.16;;;13.68;51.48
46778;BME280;32536;47.128;8.746;2023-04-23T07:04:49;91142.91;;;13.67;51.54
46778;BME280;32536;47.128;8.746;2023-04-23T07:07:15;91145.59;;;13.67;51.55
46778;BME280;32536;47.128;8.746;2023-04-23T07:09:43;91149.06;;;13.67;51.44
46778;BME280;32536;47.128;8.746;2023-04-23T07:12:10;91143.69;;;13.67;51.45
46778;BME280;32536;47.128;8.746;2023-04-23T07:14:36;91143.78;;;13.64;51.49
46778;BME280;32536;47.128;8.746;2023-04-23T07:17:03;91138.09;;;13.61;51.80
46778;BME280;32536;47.128;8.746;2023-04-23T07:19:30;91127.75;;;13.60;51.62
46778;BME280;32536;47.128;8.746;2023-04-23T07:21:56;91125.94;;;13.57;51.73
46778;BME280;32536;47.128;8.746;2023-04-23T07:24:23;91121.72;;;13.56;51.82
46778;BME280;32536;47.128;8.746;2023-04-23T07:26:51;91114.44;;;13.56;51.65
46778;BME280;32536;47.128;8.746;2023-04-23T07:29:17;91108.16;;;13.59;51.90
46778;BME280;32536;47.128;8.746;2023-04-23T07:31:44;91096.53;;;13.63;51.94
46778;BME280;32536;47.128;8.746;2023-04-23T07:34:11;91086.50;;;13.63;52.02
46778;BME280;32536;47.128;8.746;2023-04-23T07:36:38;91099.09;;;13.66;51.97
46778;BME280;32536;47.128;8.746;2023-04-23T07:39:05;91093.47;;;13.73;51.92
46778;BME280;32536;47.128;8.746;2023-04-23T07:41:32;91087.84;;;13.81;51.80
46778;BME280;32536;47.128;8.746;2023-04-23T07:43:58;91081.69;;;13.80;51.86
46778;BME280;32536;47.128;8.746;2023-04-23T07:46:25;91080.31;;;13.75;52.14
46778;BME280;32536;47.128;8.746;2023-04-23T07:48:52;91085.69;;;13.75;52.23
46778;BME280;32536;47.128;8.746;2023-04-23T07:51:20;91080.03;;;13.73;51.99
46778;BME280;32536;47.128;8.746;2023-04-23T07:53:54;91076.28;;;13.71;52.05
46778;BME280;32536;47.128;8.746;2023-04-23T07:56:21;91080.88;;;13.70;52.22
46778;BME280;32536;47.128;8.746;2023-04-23T07:58:50;91077.44;;;13.70;52.06
46778;BME280;32536;47.128;8.746;2023-04-23T08:01:18;91076.16;;;13.74;52.36
46778;BME280;32536;47.128;8.746;2023-04-23T08:03:46;91073.34;;;13.78;52.18
46778;BME280;32536;47.128;8.746;2023-04-23T08:06:12;91069.31;;;13.83;52.17
46778;BME280;32536;47.128;8.746;2023-04-23T08:08:39;91078.03;;;13.87;52.48
46778;BME280;32536;47.128;8.746;2023-04-23T08:11:06;91062.69;;;13.97;52.48
46778;BME280;32536;47.128;8.746;2023-04-23T08:13:32;91061.53;;;14.07;52.10
46778;BME280;32536;47.128;8.746;2023-04-23T08:15:59;91057.84;;;14.14;52.08
46778;BME280;32536;47.128;8.746;2023-04-23T08:18:26;91054.25;;;14.17;52.03
46778;BME280;32536;47.128;8.746;2023-04-23T08:20:53;91048.88;;;14.17;51.90
46778;BME280;32536;47.128;8.746;2023-04-23T08:23:21;91047.06;;;14.14;52.04
46778;BME280;32536;47.128;8.746;2023-04-23T08:25:47;91030.59;;;14.12;52.00
46778;BME280;32536;47.128;8.746;2023-04-23T08:28:14;91037.81;;;14.15;52.00
46778;BME280;32536;47.128;8.746;2023-04-23T08:30:42;91037.97;;;14.20;52.21
46778;BME280;32536;47.128;8.746;2023-04-23T08:33:09;91031.88;;;14.29;52.09
46778;BME280;32536;47.128;8.746;2023-04-23T08:35:36;91045.06;;;14.36;52.04
46778;BME280;32536;47.128;8.746;2023-04-23T08:38:02;91041.94;;;14.38;51.95
46778;BME280;32536;47.128;8.746;2023-04-23T08:40:30;91037.16;;;14.42;51.92
46778;BME280;32536;47.128;8.746;2023-04-23T08:43:01;91038.53;;;14.47;52.17
46778;BME280;32536;47.128;8.746;2023-04-23T08:45:29;91042.91;;;14.53;52.06
46778;BME280;32536;47.128;8.746;2023-04-23T08:47:58;91042.16;;;14.62;52.13
46778;BME280;32536;47.128;8.746;2023-04-23T08:50:27;91042.97;;;14.72;52.07
46778;BME280;32536;47.128;8.746;2023-04-23T08:52:56;91041.81;;;14.82;51.83
46778;BME280;32536;47.128;8.746;2023-04-23T08:55:24;91045.59;;;14.94;51.85
46778;BME280;32536;47.128;8.746;2023-04-23T08:57:51;91043.69;;;15.04;51.73
46778;BME280;32536;47.128;8.746;2023-04-23T09:00:19;91030.66;;;15.12;51.84
46778;BME280;32536;47.128;8.746;2023-04-23T09:02:51;91028.72;;;15.21;51.50
46778;BME280;32536;47.128;8.746;2023-04-23T09:05:17;91028.13;;;15.27;51.55
46778;BME280;32536;47.128;8.746;2023-04-23T09:07:44;91024.53;;;15.30;51.41
46778;BME280;32536;47.128;8.746;2023-04-23T09:10:12;91026.78;;;15.31;51.81
46778;BME280;32536;47.128;8.746;2023-04-23T09:12:41;91027.53;;;15.32;51.65
46778;BME280;32536;47.128;8.746;2023-04-23T09:15:09;91019.13;;;15.30;51.23
46778;BME280;32536;47.128;8.746;2023-04-23T09:17:43;91022.84;;;15.23;51.54
46778;BME280;32536;47.128;8.746;2023-04-23T09:20:12;91020.59;;;15.12;51.72
46778;BME280;32536;47.128;8.746;2023-04-23T09:22:46;91021.50;;;15.09;51.94
46778;BME280;32536;47.128;8.746;2023-04-23T09:25:42;91023.75;;;15.11;51.69
46778;BME280;32536;47.128;8.746;2023-04-23T09:28:09;91018.34;;;15.11;51.67
46778;BME280;32536;47.128;8.746;2023-04-23T09:30:43;91016.72;;;15.13;52.15
46778;BME280;32536;47.128;8.746;2023-04-23T09:33:11;91011.78;;;15.21;51.50
46778;BME280;32536;47.128;8.746;2023-04-23T09:35:38;91008.19;;;15.24;51.49
46778;BME280;32536;47.128;8.746;2023-04-23T09:38:07;91007.88;;;15.31;51.47
46778;BME280;32536;47.128;8.746;2023-04-23T09:40:35;91011.34;;;15.32;51.65
46778;BME280;32536;47.128;8.746;2023-04-23T09:43:03;91011.78;;;15.30;51.51
46778;BME280;32536;47.128;8.746;2023-04-23T09:45:31;91001.28;;;15.32;51.66
46778;BME280;32536;47.128;8.746;2023-04-23T09:48:00;91010.13;;;15.33;51.55
46778;BME280;32536;47.128;8.746;2023-04-23T09:50:39;91002.78;;;15.33;51.86
46778;BME280;32536;47.128;8.746;2023-04-23T09:53:07;91004.56;;;15.36;51.50
46778;BME280;32536;47.128;8.746;2023-04-23T09:55:36;91004.56;;;15.36;51.66
46778;BME280;32536;47.128;8.746;2023-04-23T09:58:11;91000.38;;;15.35;51.63
46778;BME280;32536;47.128;8.746;2023-04-23T10:00:40;91005.94;;;15.41;51.74
46778;BME280;32536;47.128;8.746;2023-04-23T10:03:08;90993.19;;;15.42;51.62
46778;BME280;32536;47.128;8.746;2023-04-23T10:05:39;90998.59;;;15.42;51.78
46778;BME280;32536;47.128;8.746;2023-04-23T10:08:07;90995.59;;;15.40;51.71
46778;BME280;32536;47.128;8.746;2023-04-23T10:10:34;90991.41;;;15.39;51.64
46778;BME280;32536;47.128;8.746;2023-04-23T10:13:01;90977.59;;;15.36;51.72
46778;BME280;32536;47.128;8.746;2023-04-23T10:15:28;90974.75;;;15.40;51.62
46778;BME280;32536;47.128;8.746;2023-04-23T10:17:55;90976.69;;;15.49;51.53
46778;BME280;32536;47.128;8.746;2023-04-23T10:20:24;90957.19;;;15.54;51.71
46778;BME280;32536;47.128;8.746;2023-04-23T10:22:52;90968.00;;;15.54;51.73
46778;BME280;32536;47.128;8.746;2023-04-23T10:25:48;90962.44;;;15.48;51.94
46778;BME280;32536;47.128;8.746;2023-04-23T10:28:17;90964.53;;;15.53;51.84
46778;BME280;32536;47.128;8.746;2023-04-23T10:30:52;90963.50;;;15.51;51.81
46778;BME280;32536;47.128;8.746;2023-04-23T10:33:19;90964.41;;;15.48;51.67
46778;BME280;32536;47.128;8.746;2023-04-23T10:35:47;90963.38;;;15.45;51.60
46778;BME280;32536;47.128;8.746;2023-04-23T10:38:14;90950.91;;;15.48;52.05
46778;BME280;32536;47.128;8.746;2023-04-23T10:40:44;90947.44;;;15.57;52.07
46778;BME280;32536;47.128;8.746;2023-04-23T10:43:12;90953.88;;;15.68;51.81
46778;BME280;32536;47.128;8.746;2023-04-23T10:45:39;90949.22;;;15.78;51.92
46778;BME280;32536;47.128;8.746;2023-04-23T10:48:05;90940.22;;;15.91;51.50
46778;BME280;32536;47.128;8.746;2023-04-23T10:50:36;90934.34;;;15.92;51.64
46778;BME280;32536;47.128;8.746;2023-04-23T10:53:03;90934.47;;;15.98;51.57
46778;BME280;32536;47.128;8.746;2023-04-23T10:55:30;90928.00;;;16.05;51.14
46778;BME280;32536;47.128;8.746;2023-04-23T10:58:02;90923.75;;;16.13;51.22
46778;BME280;32536;47.128;8.746;2023-04-23T11:06:05;90921.56;;;16.36;51.32
46778;BME280;32536;47.128;8.746;2023-04-23T11:08:36;90923.19;;;16.42;51.04
46778;BME280;32536;47.128;8.746;2023-04-23T11:11:07;90918.94;;;16.51;51.17
46778;BME280;32536;47.128;8.746;2023-04-23T11:13:34;90909.44;;;16.55;51.22
46778;BME280;32536;47.128;8.746;2023-04-23T11:16:20;90901.78;;;16.54;50.73
46778;BME280;32536;47.128;8.746;2023-04-23T11:21:55;90905.94;;;16.64;51.04
46778;BME280;32536;47.128;8.746;2023-04-23T11:24:31;90900.94;;;16.72;51.15
46778;BME280;32536;47.128;8.746;2023-04-23T11:26:58;90902.53;;;16.78;50.76
46778;BME280;32536;47.128;8.746;2023-04-23T11:29:26;90899.03;;;16.87;51.08
46778;BME280;32536;47.128;8.746;2023-04-23T11:31:54;90899.72;;;16.97;50.72
46778;BME280;32536;47.128;8.746;2023-04-23T11:34:22;90896.69;;;17.04;51.00
46778;BME280;32536;47.128;8.746;2023-04-23T11:36:52;90891.09;;;17.08;50.53
46778;BME280;32536;47.128;8.746;2023-04-23T11:39:20;90892.66;;;17.15;50.82
46778;BME280;32536;47.128;8.746;2023-04-23T11:41:49;90898.75;;;17.24;50.72
46778;BME280;32536;47.128;8.746;2023-04-23T11:44:18;90895.69;;;17.32;50.81
46778;BME280;32536;47.128;8.746;2023-04-23T11:46:47;90891.13;;;17.38;50.84
46778;BME280;32536;47.128;8.746;2023-04-23T11:49:15;90891.97;;;17.44;50.68
46778;BME280;32536;47.128;8.746;2023-04-23T11:51:43;90890.09;;;17.50;50.78
46778;BME280;32536;47.128;8.746;2023-04-23T11:54:11;90889.00;;;17.57;50.55
46778;BME280;32536;47.128;8.746;2023-04-23T11:56:40;90889.34;;;17.65;50.40
46778;BME280;32536;47.128;8.746;2023-04-23T11:59:07;90882.34;;;17.73;50.52
46778;BME280;32536;47.128;8.746;2023-04-23T12:01:47;90876.47;;;17.74;50.43
46778;BME280;32536;47.128;8.746;2023-04-23T12:04:21;90874.53;;;17.75;50.43
46778;BME280;32536;47.128;8.746;2023-04-23T12:06:51;90877.03;;;17.79;50.50
46778;BME280;32536;47.128;8.746;2023-04-23T12:09:19;90865.53;;;17.84;50.15
46778;BME280;32536;47.128;8.746;2023-04-23T12:11:48;90860.78;;;17.79;50.35
46778;BME280;32536;47.128;8.746;2023-04-23T12:14:20;90866.47;;;17.81;50.38
46778;BME280;32536;47.128;8.746;2023-04-23T12:16:53;90862.81;;;17.84;50.25
46778;BME280;32536;47.128;8.746;2023-04-23T12:19:25;90864.59;;;17.87;49.97
46778;BME280;32536;47.128;8.746;2023-04-23T12:21:59;90866.91;;;17.94;49.89
46778;BME280;32536;47.128;8.746;2023-04-23T12:24:28;90873.19;;;18.00;50.07
46778;BME280;32536;47.128;8.746;2023-04-23T12:26:58;90868.59;;;18.06;50.10
46778;BME280;32536;47.128;8.746;2023-04-23T12:29:29;90864.03;;;18.13;49.81
46778;BME280;32536;47.128;8.746;2023-04-23T12:31:59;90854.66;;;18.14;49.71
46778;BME280;32536;47.128;8.746;2023-04-23T12:34:25;90861.50;;;18.09;49.93
46778;BME280;32536;47.128;8.746;2023-04-23T12:36:55;90865.88;;;18.06;49.48
46778;BME280;32536;47.128;8.746;2023-04-23T12:42:00;90867.56;;;18.04;49.67
46778;BME280;32536;47.128;8.746;2023-04-23T12:44:30;90857.50;;;18.04;49.60
46778;BME280;32536;47.128;8.746;2023-04-23T12:47:00;90840.66;;;18.00;49.59
46778;BME280;32536;47.128;8.746;2023-04-23T12:49:30;90835.53;;;18.02;49.51
46778;BME280;32536;47.128;8.746;2023-04-23T12:51:59;90839.47;;;18.01;49.45
46778;BME280;32536;47.128;8.746;2023-04-23T12:54:31;90843.47;;;17.91;49.09
46778;BME280;32536;47.128;8.746;2023-04-23T12:57:02;90855.28;;;17.73;49.09
46778;BME280;32536;47.128;8.746;2023-04-23T12:59:31;90841.09;;;17.63;49.38
46778;BME280;32536;47.128;8.746;2023-04-23T13:01:58;90850.31;;;17.56;49.05
46778;BME280;32536;47.128;8.746;2023-04-23T13:04:31;90846.78;;;17.50;49.02
46778;BME280;32536;47.128;8.746;2023-04-23T13:07:00;90850.53;;;17.53;49.47
46778;BME280;32536;47.128;8.746;2023-04-23T13:09:28;90855.00;;;17.56;49.55
46778;BME280;32536;47.128;8.746;2023-04-23T13:11:55;90855.72;;;17.56;49.33
46778;BME280;32536;47.128;8.746;2023-04-23T13:14:22;90843.50;;;17.61;49.29
46778;BME280;32536;47.128;8.746;2023-04-23T13:16:48;90838.66;;;17.65;49.13